Time;durP1;ratioP1;P1;durP2;ratioP2;P2;SDS_P1;SDS_P2;PMS_P1;PMS_P2;Temp;Humidity;BMP_temperature;BMP_pressure;BME280_temperature;BME280_humidity;BME280_pressure;Samples;Min_cycle;Max_cycle;Signal;HPM_P1;HPM_P2
2022/12/12 00:00:41;;;;;;;27.70;16.08;;;;;;;2.01;100.00;101130.94;5029270;28;20080;-59
2022/12/12 00:03:07;;;;;;;26.98;16.42;;;;;;;2.08;100.00;101130.09;5029739;28;20030;-62
2022/12/12 00:05:32;;;;;;;32.17;17.77;;;;;;;2.12;100.00;101131.00;5029745;28;20113;-61
2022/12/12 00:07:58;;;;;;;29.10;16.75;;;;;;;2.06;100.00;101134.44;5029489;28;20109;-61
2022/12/12 00:10:23;;;;;;;29.73;16.55;;;;;;;2.08;100.00;101131.84;5030075;28;20024;-62
2022/12/12 00:12:48;;;;;;;29.92;16.75;;;;;;;1.96;100.00;101137.84;5028142;28;20026;-62
2022/12/12 00:15:13;;;;;;;27.83;17.02;;;;;;;2.05;100.00;101137.03;5029246;28;20487;-64
2022/12/12 00:17:39;;;;;;;29.60;16.13;;;;;;;2.05;100.00;101130.13;5028930;28;20607;-62
2022/12/12 00:20:05;;;;;;;31.35;16.83;;;;;;;2.01;100.00;101133.53;5029655;28;20026;-62
2022/12/12 00:22:30;;;;;;;30.77;16.50;;;;;;;1.96;100.00;101135.25;5029939;28;20032;-62
2022/12/12 00:24:55;;;;;;;30.15;16.88;;;;;;;2.04;100.00;101130.09;5028956;28;20058;-63
2022/12/12 00:27:21;;;;;;;28.80;16.98;;;;;;;1.97;100.00;101135.25;5029083;28;20026;-62
2022/12/12 00:29:53;;;;;;;27.08;16.08;;;;;;;1.93;100.00;101133.50;5028970;28;20412;-63
2022/12/12 00:32:18;;;;;;;30.35;17.63;;;;;;;1.82;100.00;101138.63;5029739;28;20415;-62
2022/12/12 00:34:44;;;;;;;25.23;15.05;;;;;;;1.72;100.00;101129.88;5034576;28;20095;-63
2022/12/12 00:37:09;;;;;;;26.60;16.75;;;;;;;1.69;100.00;101135.06;5028686;28;20037;-63
2022/12/12 00:39:34;;;;;;;31.33;16.05;;;;;;;1.62;100.00;101136.72;5027728;28;20460;-61
2022/12/12 00:42:00;;;;;;;29.83;17.02;;;;;;;1.48;100.00;101136.59;5028053;28;20028;-63
2022/12/12 00:44:25;;;;;;;28.42;16.25;;;;;;;1.41;100.00;101145.19;5028677;28;20044;-60
2022/12/12 00:46:50;;;;;;;35.17;16.90;;;;;;;1.39;100.00;101141.75;5028465;28;20428;-61
2022/12/12 00:49:16;;;;;;;32.58;17.55;;;;;;;1.32;100.00;101138.19;5028836;28;20419;-62
2022/12/12 00:51:42;;;;;;;30.85;16.55;;;;;;;1.21;100.00;101143.28;5010757;28;20084;-61
2022/12/12 00:54:08;;;;;;;32.13;17.27;;;;;;;1.10;100.00;101134.53;5027689;28;20029;-63
2022/12/12 00:56:33;;;;;;;36.03;17.05;;;;;;;1.08;100.00;101137.09;5028124;28;20034;-60
2022/12/12 00:59:01;;;;;;;33.80;17.77;;;;;;;0.99;100.00;101132.69;5027070;28;20037;-61
2022/12/12 01:01:29;;;;;;;31.15;16.90;;;;;;;0.99;100.00;101137.88;5027754;28;20029;-62
2022/12/12 01:03:55;;;;;;;35.17;17.05;;;;;;;0.91;100.00;101136.94;5028065;28;20484;-63
2022/12/12 01:06:21;;;;;;;35.38;17.77;;;;;;;0.90;100.00;101142.09;5028133;28;20022;-64
2022/12/12 01:08:47;;;;;;;37.95;17.52;;;;;;;0.81;100.00;101142.88;5028077;28;20021;-60
2022/12/12 01:11:13;;;;;;;36.45;18.17;;;;;;;0.78;100.00;101142.84;5028301;28;20044;-64
2022/12/12 01:13:38;;;;;;;36.08;19.55;;;;;;;0.71;100.00;101147.06;5027864;28;20036;-62
2022/12/12 01:16:05;;;;;;;38.55;18.77;;;;;;;0.66;100.00;101144.41;5027444;28;20022;-59
2022/12/12 01:18:30;;;;;;;34.25;18.98;;;;;;;0.58;100.00;101144.34;5027619;28;20480;-62
2022/12/12 01:20:56;;;;;;;31.45;17.60;;;;;;;0.51;100.00;101147.69;5027608;28;20112;-62
2022/12/12 01:23:21;;;;;;;33.33;18.30;;;;;;;0.49;100.00;101152.84;5027190;28;20017;-62
2022/12/12 01:25:47;;;;;;;37.33;19.50;;;;;;;0.42;100.00;101151.03;5028295;28;20025;-61
2022/12/12 01:28:12;;;;;;;34.83;19.05;;;;;;;0.33;100.00;101163.91;5027895;28;20037;-63
2022/12/12 01:30:38;;;;;;;35.03;17.70;;;;;;;0.28;100.00;101163.81;5028110;28;20367;-62
2022/12/12 01:33:03;;;;;;;39.53;18.90;;;;;;;0.23;100.00;101163.75;5028449;28;20056;-57
2022/12/12 01:35:30;;;;;;;38.38;19.17;;;;;;;0.16;100.00;101166.22;5028343;28;20017;-63
2022/12/12 01:37:55;;;;;;;40.08;18.85;;;;;;;0.10;100.00;101170.50;5027921;28;20030;-63
2022/12/12 01:40:23;;;;;;;41.15;20.65;;;;;;;-0.01;100.00;101165.13;5028005;28;20116;-61
2022/12/12 01:42:49;;;;;;;42.03;20.52;;;;;;;-0.05;100.00;101173.72;5027434;28;20026;-61
2022/12/12 01:45:52;;;;;;;37.95;19.05;;;;;;;-0.15;100.00;101169.25;5027014;28;20076;-62
2022/12/12 01:48:18;;;;;;;36.33;19.48;;;;;;;-0.21;100.00;101174.31;5027483;28;20045;-62
2022/12/12 01:50:44;;;;;;;37.40;19.02;;;;;;;-0.25;100.00;101170.78;4993845;28;20025;-61
2022/12/12 01:53:10;;;;;;;33.30;18.70;;;;;;;-0.32;100.00;101181.91;5028004;28;20490;-63
2022/12/12 01:55:36;;;;;;;34.65;18.65;;;;;;;-0.36;100.00;101172.34;5010164;28;20018;-61
2022/12/12 01:58:01;;;;;;;38.60;20.15;;;;;;;-0.44;100.00;101178.28;5027584;28;20494;-62
2022/12/12 02:00:27;;;;;;;34.72;18.23;;;;;;;-0.47;100.00;101177.34;4994029;28;20040;-64
2022/12/12 02:02:54;;;;;;;35.00;20.02;;;;;;;-0.49;100.00;101184.22;5027487;28;20029;-62
2022/12/12 02:05:25;;;;;;;35.50;19.80;;;;;;;-0.53;100.00;101184.16;4992982;28;20032;-62
2022/12/12 02:07:51;;;;;;;35.63;19.58;;;;;;;-0.54;100.00;101185.00;5027476;28;20030;-63
2022/12/12 02:10:16;;;;;;;38.33;19.75;;;;;;;-0.52;100.00;101191.06;5028155;28;20014;-63
2022/12/12 02:12:42;;;;;;;44.03;21.15;;;;;;;-0.53;100.00;101193.63;5029672;28;20455;-61
2022/12/12 02:15:07;;;;;;;38.50;19.10;;;;;;;-0.56;100.00;101198.75;5030431;28;20025;-64
2022/12/12 02:17:48;;;;;;;38.38;20.15;;;;;;;-0.61;100.00;101188.31;5031730;28;20017;-63
2022/12/12 02:20:25;;;;;;;41.65;21.08;;;;;;;-0.65;100.00;101184.81;5031323;28;20108;-62
2022/12/12 02:23:25;;;;;;;42.60;20.77;;;;;;;-0.68;100.00;101197.69;5031340;28;20558;-60
2022/12/12 02:26:10;;;;;;;39.80;19.88;;;;;;;-0.68;100.00;101197.69;5010705;28;20041;-63
2022/12/12 02:28:39;;;;;;;45.45;20.63;;;;;;;-0.60;100.00;101197.81;4986287;28;20604;-63
2022/12/12 02:31:07;;;;;;;48.73;20.97;;;;;;;-0.60;100.00;101194.38;4972564;28;20027;-63
2022/12/12 02:33:37;;;;;;;37.65;19.65;;;;;;;-0.64;100.00;101194.31;4972922;28;20118;-63
2022/12/12 02:36:14;;;;;;;51.72;21.70;;;;;;;-0.70;100.00;101201.97;4972730;28;20027;-62
2022/12/12 02:38:52;;;;;;;41.65;20.38;;;;;;;-0.77;100.00;101201.00;4972273;28;20115;-62
2022/12/12 02:41:27;;;;;;;44.03;22.15;;;;;;;-0.82;100.00;101204.31;4971313;28;20027;-63
2022/12/12 02:44:18;;;;;;;45.08;20.30;;;;;;;-0.87;100.00;101205.94;4972946;28;20551;-63
2022/12/12 02:46:56;;;;;;;43.33;20.25;;;;;;;-0.91;100.00;101205.88;4986892;28;20086;-62
2022/12/12 02:49:28;;;;;;;45.78;20.73;;;;;;;-0.89;100.00;101203.34;4970406;28;20019;-62
2022/12/12 02:51:54;;;;;;;51.10;22.65;;;;;;;-0.91;100.00;101208.47;4970819;28;20545;-62
2022/12/12 02:54:21;;;;;;;43.15;21.23;;;;;;;-0.93;100.00;101204.13;4970900;28;20118;-59
2022/12/12 02:56:47;;;;;;;48.30;21.42;;;;;;;-0.96;100.00;101206.66;4989971;28;20128;-62
2022/12/12 02:59:21;;;;;;;44.45;21.67;;;;;;;-1.00;100.00;101205.69;4991124;28;20489;-61
2022/12/12 03:02:06;;;;;;;47.22;23.50;;;;;;;-1.02;100.00;101208.25;4991563;28;20117;-56
2022/12/12 03:08:32;;;;;;;47.58;23.00;;;;;;;-0.89;100.00;101203.34;4980989;28;20572;-62
2022/12/12 03:11:03;;;;;;;55.80;24.42;;;;;;;-0.84;100.00;101201.69;4990855;28;20038;-62
2022/12/12 03:13:32;;;;;;;52.63;24.15;;;;;;;-0.76;100.00;101196.66;4990042;28;20396;-62
2022/12/12 03:16:27;;;;;;;55.97;24.10;;;;;;;-0.72;100.00;101197.59;4990130;28;20122;-63
2022/12/12 03:19:24;;;;;;;49.22;23.48;;;;;;;-0.73;100.00;101201.06;4989065;28;20027;-59
2022/12/12 03:21:56;;;;;;;56.60;22.95;;;;;;;-0.84;100.00;101206.88;4989281;28;20346;-62
2022/12/12 03:24:33;;;;;;;43.75;22.65;;;;;;;-0.91;100.00;101205.00;4991440;28;20113;-61
2022/12/12 03:27:09;;;;;;;53.33;21.98;;;;;;;-0.98;100.00;101201.44;4990694;28;20026;-62
2022/12/12 03:30:08;;;;;;;50.20;23.20;;;;;;;-0.99;100.00;101204.88;5021052;28;20119;-61
2022/12/12 03:32:54;;;;;;;42.38;21.33;;;;;;;-0.99;100.00;101214.34;5030782;28;20030;-60
2022/12/12 03:38:55;;;;;;;56.75;22.45;;;;;;;-0.97;100.00;101207.50;4845944;28;20071;-62
2022/12/12 03:41:23;;;;;;;52.78;21.85;;;;;;;-1.06;100.00;101205.56;5010230;28;20392;-62
2022/12/12 03:44:02;;;;;;;45.75;22.60;;;;;;;-1.09;100.00;101210.72;5009385;28;20025;-63
2022/12/12 03:46:44;;;;;;;47.30;22.00;;;;;;;-1.18;100.00;101213.94;5010775;28;20034;-63
2022/12/12 03:49:14;;;;;;;52.60;23.33;;;;;;;-1.22;100.00;101204.38;5010295;28;20522;-62
2022/12/12 03:51:45;;;;;;;55.03;22.50;;;;;;;-1.27;100.00;101210.34;5008346;28;20021;-59
2022/12/12 03:54:33;;;;;;;52.92;22.90;;;;;;;-1.34;100.00;101208.47;5010151;28;20365;-62
2022/12/12 03:57:06;;;;;;;44.45;22.77;;;;;;;-1.37;100.00;101208.41;5025589;28;20022;-62
2022/12/12 03:59:49;;;;;;;43.72;22.38;;;;;;;-1.40;100.00;101208.34;5028772;28;20037;-62
2022/12/12 04:02:20;;;;;;;45.55;23.20;;;;;;;-1.40;100.00;101213.50;5027994;28;20119;-63
2022/12/12 04:05:06;;;;;;;55.13;23.10;;;;;;;-1.39;100.00;101217.81;5028899;28;20010;-64
2022/12/12 04:07:39;;;;;;;47.42;21.70;;;;;;;-1.46;100.00;101219.41;5029167;28;20056;-66
2022/12/12 04:13:22;;;;;;;53.47;21.23;;;;;;;-1.57;100.00;101213.13;5029870;28;20499;-63
2022/12/12 04:15:56;;;;;;;44.03;20.95;;;;;;;-1.64;100.00;101219.88;5028625;28;20072;-64
2022/12/12 04:18:29;;;;;;;50.55;22.50;;;;;;;-1.68;100.00;101226.69;5027698;28;20545;-62
2022/12/12 04:24:24;;;;;;;50.95;21.63;;;;;;;-1.73;100.00;101223.13;5029410;28;20095;-63
2022/12/12 04:26:58;;;;;;;50.75;21.08;;;;;;;-1.73;100.00;101223.13;5030073;28;20029;-61
2022/12/12 04:29:24;;;;;;;45.45;21.63;;;;;;;-1.75;100.00;101218.78;5028633;28;20026;-64
2022/12/12 04:31:58;;;;;;;45.78;22.20;;;;;;;-1.75;100.00;101226.53;5029466;28;20028;-62
2022/12/12 04:34:34;;;;;;;53.10;22.92;;;;;;;-1.77;100.00;101229.06;5028640;28;20061;-60
2022/12/12 04:37:01;;;;;;;53.25;23.42;;;;;;;-1.75;100.00;101226.53;5027504;28;20553;-64
2022/12/12 04:39:28;;;;;;;52.30;23.38;;;;;;;-1.77;100.00;101239.41;5028230;28;20026;-63
2022/12/12 04:41:53;;;;;;;54.03;22.45;;;;;;;-1.78;100.00;101235.94;5012108;28;20037;-63
2022/12/12 04:44:20;;;;;;;49.20;22.88;;;;;;;-1.81;100.00;101227.22;5027660;28;20013;-62
2022/12/12 04:46:49;;;;;;;52.83;23.45;;;;;;;-1.86;100.00;101228.84;5027931;28;20033;-64
2022/12/12 04:49:18;;;;;;;50.95;23.98;;;;;;;-1.89;100.00;101231.34;5028071;28;20076;-63
2022/12/12 04:51:44;;;;;;;;;;;;;;;-1.89;100.00;101228.75;5027050;28;20021;-60
2022/12/12 04:54:30;;;;;;;49.00;21.40;;;;;;;-1.93;100.00;101227.81;5027752;28;20020;-65
2022/12/12 04:56:58;;;;;;;46.95;20.88;;;;;;;-1.97;100.00;101229.47;5027206;28;20022;-62
2022/12/12 04:59:23;;;;;;;52.75;23.70;;;;;;;-1.98;100.00;101224.25;5027554;28;20029;-63
2022/12/12 05:02:02;;;;;;;48.42;21.75;;;;;;;-2.01;100.00;101224.19;5027624;28;20029;-63
2022/12/12 05:05:05;;;;;;;49.70;23.77;;;;;;;-2.01;100.00;101227.66;5027692;28;20049;-61
2022/12/12 05:07:39;;;;;;;48.03;21.13;;;;;;;-2.04;100.00;101225.84;5028197;28;20041;-63
2022/12/12 05:10:07;;;;;;;52.92;21.85;;;;;;;-2.06;100.00;101230.13;5029065;28;20475;-61
2022/12/12 05:12:45;;;;;;;55.60;22.35;;;;;;;-2.05;100.00;101228.38;5028743;28;20092;-62
2022/12/12 05:15:10;;;;;;;62.25;25.13;;;;;;;-1.99;100.00;101227.69;5027088;28;20046;-64
2022/12/12 05:17:56;;;;;;;51.80;23.27;;;;;;;-1.97;100.00;101228.56;5027176;28;20034;-63
2022/12/12 05:20:22;;;;;;;62.45;24.58;;;;;;;-1.92;100.00;101229.56;5020080;28;20033;-63
2022/12/12 05:22:47;;;;;;;51.17;24.33;;;;;;;-1.98;100.00;101230.31;5027861;28;20390;-64
2022/12/12 05:25:12;;;;;;;46.13;21.45;;;;;;;-2.04;100.00;101241.34;5028116;28;20060;-62
2022/12/12 05:27:38;;;;;;;58.58;24.95;;;;;;;-2.01;100.00;101235.41;5028474;28;20029;-63
2022/12/12 05:30:04;;;;;;;59.03;24.48;;;;;;;-2.04;100.00;101238.75;5028576;28;20041;-64
2022/12/12 05:32:29;;;;;;;50.55;24.10;;;;;;;-2.06;100.00;101245.59;5028514;28;20479;-64
2022/12/12 05:34:55;;;;;;;55.33;24.02;;;;;;;-2.11;100.00;101247.19;5044109;28;20056;-64
2022/12/12 05:37:20;;;;;;;56.65;24.20;;;;;;;-2.14;100.00;101238.50;5046294;28;20414;-63
2022/12/12 05:39:45;;;;;;;57.25;25.60;;;;;;;-2.14;100.00;101239.34;5011346;28;20034;-63
2022/12/12 05:42:11;;;;;;;51.30;24.25;;;;;;;-2.17;100.00;101240.16;5008215;28;20022;-61
2022/12/12 05:44:36;;;;;;;50.35;24.30;;;;;;;-2.19;100.00;101239.28;5011260;28;20018;-64
2022/12/12 05:47:01;;;;;;;51.65;23.00;;;;;;;-2.19;100.00;101241.84;5012132;28;20042;-62
2022/12/12 05:49:27;;;;;;;45.15;21.92;;;;;;;-2.23;100.00;101245.16;5014876;28;20108;-63
2022/12/12 05:51:52;;;;;;;49.38;21.27;;;;;;;-2.24;100.00;101242.53;5011675;28;20044;-62
2022/12/12 05:54:17;;;;;;;52.05;22.52;;;;;;;-2.28;100.00;101242.47;5012086;28;20030;-62
2022/12/12 05:56:43;;;;;;;57.75;24.02;;;;;;;-2.29;100.00;101245.88;5012148;28;20026;-59
2022/12/12 05:59:08;;;;;;;52.55;23.05;;;;;;;-2.25;100.00;101256.28;5011874;28;20018;-62
2022/12/12 06:01:33;;;;;;;57.38;24.15;;;;;;;-2.26;100.00;101254.56;5020885;28;20380;-62
2022/12/12 06:03:59;;;;;;;56.25;23.17;;;;;;;-2.29;100.00;101245.00;5031175;28;20065;-63
2022/12/12 06:06:24;;;;;;;54.70;22.63;;;;;;;-2.28;100.00;101250.22;5030174;28;20064;-64
2022/12/12 06:08:50;;;;;;;51.70;21.45;;;;;;;-2.28;100.00;101257.94;5013241;28;20129;-61
2022/12/12 06:11:16;;;;;;;56.38;23.27;;;;;;;-2.30;100.00;101254.47;5031530;28;20033;-63
2022/12/12 06:13:41;;;;;;;53.97;23.70;;;;;;;-2.31;100.00;101263.06;5031679;28;20352;-63
2022/12/12 06:16:08;;;;;;;53.90;23.08;;;;;;;-2.34;100.00;101254.34;5031566;28;20032;-62
2022/12/12 06:18:33;;;;;;;58.50;23.35;;;;;;;-2.35;100.00;101258.63;5031819;28;20039;-64
2022/12/12 06:21:04;;;;;;;49.03;21.27;;;;;;;-2.36;100.00;101253.44;5031707;28;20515;-63
2022/12/12 06:23:29;;;;;;;46.72;21.13;;;;;;;-2.37;100.00;101262.91;5050085;28;20033;-62
2022/12/12 06:25:55;;;;;;;47.97;21.30;;;;;;;-2.37;100.00;101265.47;5049456;28;20017;-62
2022/12/12 06:28:20;;;;;;;45.42;21.20;;;;;;;-2.37;100.00;101265.47;5029892;28;20049;-64
2022/12/12 06:30:45;;;;;;;50.42;23.50;;;;;;;-2.37;100.00;101273.22;5030915;28;20029;-61
2022/12/12 06:33:11;;;;;;;46.70;22.92;;;;;;;-2.38;100.00;101268.03;5030016;28;20029;-62
2022/12/12 06:35:36;;;;;;;49.70;21.83;;;;;;;-2.40;100.00;101278.31;5031379;28;20021;-63
2022/12/12 06:38:01;;;;;;;49.72;23.38;;;;;;;-2.34;100.00;101270.72;5030315;28;20054;-64
2022/12/12 06:40:27;;;;;;;56.08;23.45;;;;;;;-2.31;100.00;101272.50;5031572;28;20491;-64
2022/12/12 06:42:52;;;;;;;47.40;22.17;;;;;;;-2.36;100.00;101274.97;5029566;28;20037;-62
2022/12/12 06:45:17;;;;;;;58.45;23.80;;;;;;;-2.35;100.00;101276.69;5030081;28;20033;-64
2022/12/12 06:47:43;;;;;;;55.30;22.13;;;;;;;-2.36;100.00;101282.72;5031042;28;20060;-58
2022/12/12 06:50:08;;;;;;;53.38;22.00;;;;;;;-2.39;100.00;101280.03;5028962;28;20452;-61
2022/12/12 06:52:34;;;;;;;57.85;23.10;;;;;;;-2.38;100.00;101289.53;5030508;28;20037;-64
2022/12/12 06:54:59;;;;;;;46.15;21.48;;;;;;;-2.39;100.00;101284.31;5022709;28;20025;-64
2022/12/12 06:57:25;;;;;;;58.95;22.58;;;;;;;-2.40;100.00;101283.47;5017804;28;20464;-63
2022/12/12 06:59:50;;;;;;;60.28;23.00;;;;;;;-2.46;100.00;101289.34;5021578;28;20030;-61
2022/12/12 07:02:16;;;;;;;46.25;21.33;;;;;;;-2.48;100.00;101282.38;5026281;28;20032;-64
2022/12/12 07:04:41;;;;;;;59.55;22.63;;;;;;;-2.45;100.00;101285.91;5022044;28;20056;-61
2022/12/12 07:07:07;;;;;;;58.67;23.20;;;;;;;-2.41;100.00;101286.84;5017756;28;20387;-63
2022/12/12 07:09:33;;;;;;;48.47;21.02;;;;;;;-2.41;100.00;101297.19;5018598;28;20021;-59
2022/12/12 07:11:58;;;;;;;49.85;21.73;;;;;;;-2.44;100.00;101302.28;5028201;28;20448;-64
2022/12/12 07:14:23;;;;;;;48.78;21.77;;;;;;;-2.47;100.00;101302.19;5030606;28;20057;-64
2022/12/12 07:16:49;;;;;;;57.20;22.83;;;;;;;-2.51;100.00;101302.91;5030293;28;20056;-63
2022/12/12 07:19:15;;;;;;;48.60;21.52;;;;;;;-2.55;100.00;101304.56;5030494;28;20546;-57
2022/12/12 07:21:40;;;;;;;56.80;21.80;;;;;;;-2.58;100.00;101309.63;5028385;28;20112;-63
2022/12/12 07:24:06;;;;;;;54.42;23.40;;;;;;;-2.49;100.00;101311.59;5029045;28;20426;-64
2022/12/12 07:26:31;;;;;;;60.88;22.98;;;;;;;-2.48;100.00;101310.75;5009831;28;20033;-63
2022/12/12 07:28:57;;;;;;;57.45;24.95;;;;;;;-2.45;100.00;101313.41;5009184;28;20013;-65
2022/12/12 07:31:25;;;;;;;66.10;25.92;;;;;;;-2.38;100.00;101311.91;5022899;28;20040;-64
2022/12/12 07:33:50;;;;;;;69.35;27.75;;;;;;;-2.22;100.00;101306.31;5029903;28;20025;-63
2022/12/12 07:36:16;;;;;;;68.05;25.50;;;;;;;-2.24;100.00;101305.41;5028002;28;20055;-63
2022/12/12 07:38:42;;;;;;;67.47;26.27;;;;;;;-2.24;100.00;101309.66;5025843;28;20117;-66
2022/12/12 07:41:11;;;;;;;62.45;25.70;;;;;;;-2.29;100.00;101314.72;5016822;28;20034;-63
2022/12/12 07:43:39;;;;;;;54.45;24.08;;;;;;;-2.35;100.00;101317.16;5010491;28;20476;-66
2022/12/12 07:46:08;;;;;;;56.45;24.10;;;;;;;-2.31;100.00;101322.44;5028423;28;20042;-62
2022/12/12 07:48:34;;;;;;;56.60;24.05;;;;;;;-2.36;100.00;101316.25;5029526;28;20535;-62
2022/12/12 07:51:00;;;;;;;55.67;22.20;;;;;;;-2.42;100.00;101321.25;5029068;28;20129;-62
2022/12/12 07:53:26;;;;;;;50.65;22.90;;;;;;;-2.46;100.00;101322.00;5028725;28;20032;-64
2022/12/12 07:55:51;;;;;;;53.83;21.85;;;;;;;-2.48;100.00;101327.13;5028492;28;20026;-60
2022/12/12 07:58:16;;;;;;;57.03;23.80;;;;;;;-2.43;100.00;101330.72;5027906;28;20356;-63
2022/12/12 08:00:42;;;;;;;53.55;23.02;;;;;;;-2.46;100.00;101340.06;5029058;28;20116;-64
2022/12/12 08:03:07;;;;;;;62.05;23.90;;;;;;;-2.48;100.00;101336.56;5027495;28;20021;-59
2022/12/12 08:05:33;;;;;;;51.10;23.60;;;;;;;-2.47;100.00;101344.34;5027465;28;20044;-63
2022/12/12 08:07:59;;;;;;;57.35;23.25;;;;;;;-2.46;100.00;101345.25;5026350;28;20084;-63
2022/12/12 08:10:24;;;;;;;55.92;24.65;;;;;;;-2.36;100.00;101343.78;5027970;28;20021;-59
2022/12/12 08:12:50;;;;;;;58.30;24.00;;;;;;;-2.38;100.00;101356.63;5028400;28;20029;-61
2022/12/12 08:15:16;;;;;;;62.85;25.17;;;;;;;-2.36;100.00;101354.97;5027461;28;20033;-58
2022/12/12 08:17:42;;;;;;;63.38;24.73;;;;;;;-2.30;100.00;101356.84;5016862;28;20034;-63
2022/12/12 08:20:08;;;;;;;57.63;24.30;;;;;;;-2.34;100.00;101361.06;5026983;28;20055;-63
2022/12/12 08:22:33;;;;;;;59.28;24.02;;;;;;;-2.33;100.00;101357.66;5027673;28;20115;-59
2022/12/12 08:24:59;;;;;;;57.78;23.42;;;;;;;-2.31;100.00;101360.28;5025374;28;20053;-63
2022/12/12 08:27:24;;;;;;;61.13;23.52;;;;;;;-2.24;100.00;101353.56;5027815;28;20357;-64
2022/12/12 08:29:53;;;;;;;58.03;24.40;;;;;;;-2.23;100.00;101358.78;5029054;28;20094;-64
2022/12/12 08:32:19;;;;;;;;;;;;;;;-2.18;100.00;101353.72;5028794;28;20061;-62
2022/12/12 08:34:44;;;;;;;56.00;22.92;;;;;;;-2.14;100.00;101367.63;5030353;28;19968;-64
2022/12/12 08:37:09;;;;;;;49.78;23.00;;;;;;;-2.08;100.00;101353.16;5026958;28;20041;-58
2022/12/12 08:39:35;;;;;;;52.28;21.70;;;;;;;-2.04;100.00;101361.88;5027568;28;20484;-64
2022/12/12 08:42:01;;;;;;;58.45;22.95;;;;;;;-2.04;100.00;101360.13;5028067;28;20096;-64
2022/12/12 08:44:26;;;;;;;52.47;23.40;;;;;;;-2.03;100.00;101351.56;5028829;28;20109;-60
2022/12/12 08:46:52;;;;;;;55.70;23.60;;;;;;;-2.04;100.00;101349.81;5028293;28;20452;-63
2022/12/12 08:49:18;;;;;;;57.33;24.63;;;;;;;-2.00;100.00;101355.94;5028124;28;20074;-63
2022/12/12 08:51:43;;;;;;;59.20;24.15;;;;;;;-1.93;100.00;101349.22;5028058;28;20025;-64
2022/12/12 08:54:11;;;;;;;62.17;24.55;;;;;;;-1.88;100.00;101357.97;5028837;28;20078;-63
2022/12/12 08:56:36;;;;;;;63.65;23.10;;;;;;;-1.83;100.00;101350.34;5027202;28;20025;-62
2022/12/12 08:59:02;;;;;;;56.17;23.08;;;;;;;-1.83;100.00;101352.94;5028462;28;20345;-63
2022/12/12 09:01:27;;;;;;;57.40;23.27;;;;;;;-1.77;100.00;101358.25;5025749;28;20071;-64
2022/12/12 09:03:54;;;;;;;64.70;23.58;;;;;;;-1.74;100.00;101357.44;5028338;28;20103;-63
2022/12/12 09:06:21;;;;;;;55.00;24.27;;;;;;;-1.72;100.00;101360.97;5026693;28;20041;-61
2022/12/12 09:08:47;;;;;;;62.90;26.20;;;;;;;-1.78;100.00;101356.47;5027478;28;20129;-63
2022/12/12 09:11:12;;;;;;;64.47;25.55;;;;;;;-1.67;100.00;101359.34;5026226;28;20048;-62
2022/12/12 09:13:38;;;;;;;68.13;25.98;;;;;;;-1.66;100.00;101358.50;5027213;28;20029;-62
2022/12/12 09:16:05;;;;;;;69.10;27.55;;;;;;;-1.59;100.00;101359.56;5023363;28;20040;-63
2022/12/12 09:18:30;;;;;;;55.53;22.67;;;;;;;-1.60;100.00;101369.00;5032239;28;20557;-63
2022/12/12 09:20:57;;;;;;;63.67;25.13;;;;;;;-1.54;100.00;101369.16;5028230;28;20116;-62
2022/12/12 09:23:23;;;;;;;58.78;24.48;;;;;;;-1.46;100.00;101373.66;5027037;28;20296;-63
2022/12/12 09:25:49;;;;;;;56.75;23.83;;;;;;;-1.38;100.00;101371.25;5017710;28;20032;-63
2022/12/12 09:28:16;;;;;;;59.28;24.27;;;;;;;-1.40;100.00;101366.03;5019585;28;20045;-63
2022/12/12 09:30:42;;;;;;;57.67;25.95;;;;;;;-1.32;100.00;101361.06;5018652;28;20026;-62
2022/12/12 09:33:07;;;;;;;53.97;24.75;;;;;;;-1.29;100.00;101372.34;5017479;28;20361;-63
2022/12/12 09:35:32;;;;;;;50.65;23.88;;;;;;;-1.24;100.00;101369.88;5025315;28;20025;-61
2022/12/12 09:37:58;;;;;;;60.10;25.60;;;;;;;-1.28;100.00;101374.09;5016790;28;20042;-62
2022/12/12 09:40:32;;;;;;;59.70;25.23;;;;;;;-1.34;100.00;101366.19;5020410;28;20457;-60
2022/12/12 09:42:57;;;;;;;64.05;24.85;;;;;;;-1.27;100.00;101368.09;5019651;28;20474;-64
2022/12/12 09:45:23;;;;;;;58.35;25.35;;;;;;;-1.20;100.00;101371.66;5029371;28;20025;-63
2022/12/12 09:47:57;;;;;;;64.18;25.48;;;;;;;-1.12;100.00;101369.28;5030974;28;20025;-60
2022/12/12 09:50:30;;;;;;;50.50;24.08;;;;;;;-1.06;100.00;101365.94;5030127;28;20032;-61
2022/12/12 09:52:58;;;;;;;53.33;24.27;;;;;;;-1.02;100.00;101365.19;5021584;28;20517;-62
2022/12/12 09:55:48;;;;;;;62.53;26.95;;;;;;;-0.98;100.00;101363.53;5020206;28;20022;-60
2022/12/12 09:58:15;;;;;;;58.72;23.63;;;;;;;-0.95;100.00;101368.78;5023970;28;20499;-62
2022/12/12 10:00:47;;;;;;;58.17;24.40;;;;;;;-0.80;100.00;101365.66;5029519;28;20033;-63
2022/12/12 10:03:27;;;;;;;55.05;23.63;;;;;;;-0.78;100.00;101364.84;5025765;28;20048;-63
2022/12/12 10:06:06;;;;;;;53.67;24.02;;;;;;;-0.79;100.00;101359.63;5019718;28;20033;-62
2022/12/12 10:08:43;;;;;;;57.20;23.83;;;;;;;-0.81;100.00;101361.34;5019290;28;20013;-63
2022/12/12 10:14:01;;;;;;;44.67;23.38;;;;;;;-0.81;100.00;101357.00;5018194;28;20092;-64
2022/12/12 10:16:28;;;;;;;47.47;22.95;;;;;;;-0.84;100.00;101362.13;5021279;28;20105;-62
2022/12/12 10:18:59;;;;;;;52.10;22.50;;;;;;;-0.71;100.00;101355.53;5028802;28;20488;-63
2022/12/12 10:21:26;;;;;;;53.88;23.65;;;;;;;-0.65;100.00;101358.25;5024923;28;20403;-62
2022/12/12 10:24:10;;;;;;;47.83;22.83;;;;;;;-0.57;100.00;101353.19;5028574;28;20030;-64
2022/12/12 10:26:35;;;;;;;46.90;21.73;;;;;;;-0.47;100.00;101351.69;5021646;28;20124;-63
2022/12/12 10:29:18;;;;;;;49.17;22.42;;;;;;;-0.41;100.00;101353.53;5014718;28;20096;-61
2022/12/12 10:31:58;;;;;;;52.47;23.30;;;;;;;-0.37;100.00;101344.97;5023872;28;20455;-64
2022/12/12 10:34:50;;;;;;;47.05;22.92;;;;;;;-0.34;100.00;101344.16;5029277;28;20687;-56
2022/12/12 10:37:41;;;;;;;45.15;21.45;;;;;;;-0.28;100.00;101350.34;5026792;28;20049;-57
2022/12/12 10:40:30;;;;;;;50.55;23.42;;;;;;;-0.27;100.00;101339.13;5017175;28;20034;-61
2022/12/12 10:43:09;;;;;;;44.78;22.77;;;;;;;-0.25;100.00;101344.31;5021729;28;20021;-63
2022/12/12 10:45:53;;;;;;;44.90;20.70;;;;;;;-0.38;100.00;101335.47;5022674;28;20072;-61
2022/12/12 10:48:19;;;;;;;52.92;23.58;;;;;;;-0.31;100.00;101334.72;5026572;28;20430;-63
2022/12/12 10:50:47;;;;;;;53.55;22.85;;;;;;;-0.24;100.00;101329.66;5027783;28;20029;-66
2022/12/12 10:53:12;;;;;;;46.88;21.23;;;;;;;-0.18;100.00;101342.75;5023375;28;20038;-64
2022/12/12 10:55:45;;;;;;;47.30;22.83;;;;;;;-0.16;100.00;101334.16;5029048;28;20036;-63
2022/12/12 10:58:12;;;;;;;43.28;22.40;;;;;;;-0.11;100.00;101336.84;5027230;28;20025;-63
2022/12/12 11:00:39;;;;;;;50.25;23.40;;;;;;;-0.06;100.00;101339.50;5029692;28;20109;-63
2022/12/12 11:03:27;;;;;;;49.05;22.20;;;;;;;-0.07;100.00;101343.81;5027936;28;20550;-64
2022/12/12 11:05:54;;;;;;;41.20;20.63;;;;;;;-0.16;100.00;101333.25;5047484;28;20040;-61
2022/12/12 11:08:31;;;;;;;47.20;21.17;;;;;;;0.00;100.00;101337.03;5047998;28;20117;-64
2022/12/12 11:11:02;;;;;;;47.28;20.88;;;;;;;-0.02;100.00;101321.47;5050659;28;20029;-62
2022/12/12 11:13:28;;;;;;;43.20;21.63;;;;;;;0.09;100.00;101334.59;5051142;28;20443;-64
2022/12/12 11:16:25;;;;;;;45.72;22.80;;;;;;;0.17;100.00;101334.72;5050868;28;20040;-63
2022/12/12 11:18:58;;;;;;;42.70;20.77;;;;;;;0.29;100.00;101326.28;5031032;28;20037;-62
2022/12/12 11:21:24;;;;;;;42.75;20.58;;;;;;;0.39;100.00;101329.88;5051320;28;20029;-61
2022/12/12 11:23:53;;;;;;;41.10;20.50;;;;;;;0.40;100.00;101326.47;5051942;28;20017;-63
2022/12/12 11:26:19;;;;;;;43.35;21.13;;;;;;;0.41;100.00;101325.63;5051058;28;20108;-63
2022/12/12 11:28:59;;;;;;;40.80;21.38;;;;;;;0.45;100.00;101331.72;5039072;28;20394;-65
2022/12/12 11:31:28;;;;;;;43.78;20.52;;;;;;;0.50;100.00;101330.06;5030328;28;20091;-63